sensor_id;sensor_type;location;lat;lon;timestamp;pressure;altitude;pressure_sealevel;temperature;humidity
13869;BME280;7004;48.206;16.402;2022-07-25T00:00:44;99860.47;;;21.68;54.50
13869;BME280;7004;48.206;16.402;2022-07-25T00:03:11;99864.19;;;21.25;56.22
13869;BME280;7004;48.206;16.402;2022-07-25T00:05:39;99862.28;;;21.09;56.85
13869;BME280;7004;48.206;16.402;2022-07-25T00:08:05;99859.31;;;21.20;56.90
13869;BME280;7004;48.206;16.402;2022-07-25T00:10:31;99857.31;;;20.88;57.63
13869;BME280;7004;48.206;16.402;2022-07-25T00:12:59;99854.88;;;21.11;57.01
13869;BME280;7004;48.206;16.402;2022-07-25T00:15:26;99863.97;;;21.10;56.84
13869;BME280;7004;48.206;16.402;2022-07-25T00:17:52;99861.38;;;20.92;57.92
13869;BME280;7004;48.206;16.402;2022-07-25T00:20:19;99854.53;;;21.06;57.52
13869;BME280;7004;48.206;16.402;2022-07-25T00:22:45;99855.50;;;20.88;58.04
13869;BME280;7004;48.206;16.402;2022-07-25T00:25:13;99853.50;;;20.64;59.11
13869;BME280;7004;48.206;16.402;2022-07-25T00:27:40;99857.16;;;20.89;58.79
13869;BME280;7004;48.206;16.402;2022-07-25T00:30:08;99853.66;;;20.97;58.30
13869;BME280;7004;48.206;16.402;2022-07-25T00:32:37;99844.41;;;20.91;58.48
13869;BME280;7004;48.206;16.402;2022-07-25T00:35:05;99841.69;;;20.83;58.81
13869;BME280;7004;48.206;16.402;2022-07-25T00:37:32;99845.06;;;20.59;59.80
13869;BME280;7004;48.206;16.402;2022-07-25T00:39:59;99842.53;;;20.84;59.04
13869;BME280;7004;48.206;16.402;2022-07-25T00:42:25;99839.66;;;20.85;58.99
13869;BME280;7004;48.206;16.402;2022-07-25T00:44:52;99832.53;;;20.68;59.89
13869;BME280;7004;48.206;16.402;2022-07-25T00:47:20;99836.84;;;20.35;61.08
13869;BME280;7004;48.206;16.402;2022-07-25T00:49:47;99839.44;;;20.44;61.30
13869;BME280;7004;48.206;16.402;2022-07-25T00:52:14;99839.13;;;20.73;60.20
13869;BME280;7004;48.206;16.402;2022-07-25T00:54:40;99834.69;;;20.64;60.41
13869;BME280;7004;48.206;16.402;2022-07-25T00:57:09;99833.88;;;20.46;61.21
13869;BME280;7004;48.206;16.402;2022-07-25T00:59:48;99843.69;;;20.29;62.00
13869;BME280;7004;48.206;16.402;2022-07-25T01:02:14;99835.00;;;20.61;60.79
13869;BME280;7004;48.206;16.402;2022-07-25T01:04:51;99831.56;;;20.77;60.18
13869;BME280;7004;48.206;16.402;2022-07-25T01:07:25;99831.94;;;20.82;60.32
13869;BME280;7004;48.206;16.402;2022-07-25T01:09:52;99840.09;;;20.72;60.28
13869;BME280;7004;48.206;16.402;2022-07-25T01:12:29;99831.28;;;20.36;61.72
13869;BME280;7004;48.206;16.402;2022-07-25T01:14:56;99827.38;;;20.04;62.80
13869;BME280;7004;48.206;16.402;2022-07-25T01:17:23;99824.66;;;20.22;62.98
13869;BME280;7004;48.206;16.402;2022-07-25T01:19:51;99816.09;;;20.19;62.77
13869;BME280;7004;48.206;16.402;2022-07-25T01:22:18;99813.59;;;19.99;63.39
13869;BME280;7004;48.206;16.402;2022-07-25T01:24:45;99819.13;;;19.98;64.03
13869;BME280;7004;48.206;16.402;2022-07-25T01:27:12;99820.22;;;19.69;64.97
13869;BME280;7004;48.206;16.402;2022-07-25T01:29:40;99818.38;;;19.70;65.39
13869;BME280;7004;48.206;16.402;2022-07-25T01:32:12;99819.53;;;19.85;64.68
13869;BME280;7004;48.206;16.402;2022-07-25T01:34:42;99813.81;;;20.06;64.06
13869;BME280;7004;48.206;16.402;2022-07-25T01:37:16;99819.84;;;19.82;65.29
13869;BME280;7004;48.206;16.402;2022-07-25T01:39:48;99813.78;;;19.80;65.71
13869;BME280;7004;48.206;16.402;2022-07-25T01:42:15;99813.78;;;19.98;64.98
13869;BME280;7004;48.206;16.402;2022-07-25T01:44:47;99814.69;;;19.89;65.58
13869;BME280;7004;48.206;16.402;2022-07-25T01:47:15;99809.59;;;19.50;67.51
13869;BME280;7004;48.206;16.402;2022-07-25T01:49:48;99807.91;;;19.31;68.82
13869;BME280;7004;48.206;16.402;2022-07-25T01:52:37;99805.47;;;19.37;68.82
13869;BME280;7004;48.206;16.402;2022-07-25T01:55:05;99801.28;;;19.71;67.89
13869;BME280;7004;48.206;16.402;2022-07-25T01:57:32;99803.56;;;19.48;69.60
13869;BME280;7004;48.206;16.402;2022-07-25T02:00:08;99801.41;;;20.31;65.09
13869;BME280;7004;48.206;16.402;2022-07-25T02:02:49;99799.75;;;19.86;67.66
13869;BME280;7004;48.206;16.402;2022-07-25T02:05:36;99804.59;;;20.26;65.53
13869;BME280;7004;48.206;16.402;2022-07-25T02:08:03;99802.84;;;19.63;68.09
13869;BME280;7004;48.206;16.402;2022-07-25T02:10:31;99797.66;;;19.62;67.87
13869;BME280;7004;48.206;16.402;2022-07-25T02:12:57;99801.84;;;19.74;67.46
13869;BME280;7004;48.206;16.402;2022-07-25T02:15:23;99790.53;;;19.89;68.07
13869;BME280;7004;48.206;16.402;2022-07-25T02:17:49;99799.97;;;19.93;66.18
13869;BME280;7004;48.206;16.402;2022-07-25T02:20:16;99804.25;;;19.50;67.51
13869;BME280;7004;48.206;16.402;2022-07-25T02:22:44;99807.06;;;19.48;68.38
13869;BME280;7004;48.206;16.402;2022-07-25T02:25:11;99806.84;;;19.41;68.06
13869;BME280;7004;48.206;16.402;2022-07-25T02:27:38;99793.06;;;20.34;67.29
13869;BME280;7004;48.206;16.402;2022-07-25T02:30:06;99796.69;;;19.81;66.00
13869;BME280;7004;48.206;16.402;2022-07-25T02:32:34;99802.22;;;19.79;66.33
13869;BME280;7004;48.206;16.402;2022-07-25T02:35:03;99801.72;;;19.66;66.82
13869;BME280;7004;48.206;16.402;2022-07-25T02:37:30;99806.34;;;19.74;66.73
13869;BME280;7004;48.206;16.402;2022-07-25T02:39:57;99801.28;;;19.89;66.76
13869;BME280;7004;48.206;16.402;2022-07-25T02:42:23;99806.34;;;19.74;66.43
13869;BME280;7004;48.206;16.402;2022-07-25T02:44:48;99807.47;;;19.71;67.01
13869;BME280;7004;48.206;16.402;2022-07-25T02:47:15;99803.94;;;19.53;67.33
13869;BME280;7004;48.206;16.402;2022-07-25T02:49:41;99812.63;;;19.19;69.38
13869;BME280;7004;48.206;16.402;2022-07-25T02:52:08;99806.22;;;19.30;68.66
13869;BME280;7004;48.206;16.402;2022-07-25T02:54:34;99806.59;;;19.35;69.04
13869;BME280;7004;48.206;16.402;2022-07-25T02:57:00;99813.59;;;19.00;70.26
13869;BME280;7004;48.206;16.402;2022-07-25T02:59:26;99806.56;;;18.99;70.25
13869;BME280;7004;48.206;16.402;2022-07-25T03:01:52;99804.47;;;18.93;70.74
13869;BME280;7004;48.206;16.402;2022-07-25T03:04:19;99810.00;;;18.91;71.00
13869;BME280;7004;48.206;16.402;2022-07-25T03:06:45;99803.97;;;19.07;70.69
13869;BME280;7004;48.206;16.402;2022-07-25T03:09:11;99801.00;;;18.73;72.32
13869;BME280;7004;48.206;16.402;2022-07-25T03:11:37;99799.19;;;18.73;72.70
13869;BME280;7004;48.206;16.402;2022-07-25T03:14:03;99802.66;;;18.46;73.80
13869;BME280;7004;48.206;16.402;2022-07-25T03:16:30;99800.63;;;18.68;73.62
13869;BME280;7004;48.206;16.402;2022-07-25T03:18:56;99800.69;;;18.48;74.46
13869;BME280;7004;48.206;16.402;2022-07-25T03:21:22;99793.69;;;18.75;73.26
13869;BME280;7004;48.206;16.402;2022-07-25T03:23:48;99799.75;;;18.67;74.05
13869;BME280;7004;48.206;16.402;2022-07-25T03:26:15;99798.53;;;18.62;74.12
13869;BME280;7004;48.206;16.402;2022-07-25T03:28:41;99803.84;;;18.34;75.57
13869;BME280;7004;48.206;16.402;2022-07-25T03:31:07;99799.88;;;18.38;75.83
13869;BME280;7004;48.206;16.402;2022-07-25T03:33:33;99804.31;;;18.57;75.36
13869;BME280;7004;48.206;16.402;2022-07-25T03:36:00;99795.44;;;18.56;75.75
13869;BME280;7004;48.206;16.402;2022-07-25T03:38:26;99807.66;;;18.31;77.03
13869;BME280;7004;48.206;16.402;2022-07-25T03:40:54;99795.56;;;18.18;78.15
13869;BME280;7004;48.206;16.402;2022-07-25T03:43:20;99796.25;;;18.20;79.20
13869;BME280;7004;48.206;16.402;2022-07-25T03:45:46;99791.00;;;18.38;78.93
13869;BME280;7004;48.206;16.402;2022-07-25T03:48:12;99792.88;;;18.18;79.38
13869;BME280;7004;48.206;16.402;2022-07-25T03:50:38;99795.53;;;18.37;79.09
13869;BME280;7004;48.206;16.402;2022-07-25T03:53:04;99801.63;;;18.20;80.21
13869;BME280;7004;48.206;16.402;2022-07-25T03:55:31;99793.13;;;18.34;80.31
13869;BME280;7004;48.206;16.402;2022-07-25T03:57:57;99795.28;;;18.95;77.49
13869;BME280;7004;48.206;16.402;2022-07-25T04:00:23;99793.19;;;18.99;76.60
13869;BME280;7004;48.206;16.402;2022-07-25T04:02:50;99801.94;;;18.54;79.29
13869;BME280;7004;48.206;16.402;2022-07-25T04:05:19;99799.19;;;19.29;76.32
13869;BME280;7004;48.206;16.402;2022-07-25T04:07:46;99795.28;;;19.23;75.92
13869;BME280;7004;48.206;16.402;2022-07-25T04:10:12;99799.50;;;19.26;76.25
13869;BME280;7004;48.206;16.402;2022-07-25T04:12:38;99799.34;;;19.45;74.95
13869;BME280;7004;48.206;16.402;2022-07-25T04:15:05;99794.47;;;19.40;75.34
13869;BME280;7004;48.206;16.402;2022-07-25T04:17:31;99788.22;;;19.58;74.62
13869;BME280;7004;48.206;16.402;2022-07-25T04:19:58;99786.94;;;19.62;74.61
13869;BME280;7004;48.206;16.402;2022-07-25T04:22:25;99779.06;;;19.78;73.33
13869;BME280;7004;48.206;16.402;2022-07-25T04:24:51;99784.41;;;19.60;73.44
13869;BME280;7004;48.206;16.402;2022-07-25T04:27:17;99782.75;;;19.77;72.57
13869;BME280;7004;48.206;16.402;2022-07-25T04:29:43;99784.88;;;19.74;73.66
13869;BME280;7004;48.206;16.402;2022-07-25T04:32:10;99781.91;;;19.59;74.97
13869;BME280;7004;48.206;16.402;2022-07-25T04:34:36;99786.25;;;19.42;77.00
13869;BME280;7004;48.206;16.402;2022-07-25T04:37:03;99780.91;;;19.78;74.80
13869;BME280;7004;48.206;16.402;2022-07-25T04:39:29;99781.03;;;19.94;74.23
13869;BME280;7004;48.206;16.402;2022-07-25T04:41:56;99787.41;;;19.75;75.25
13869;BME280;7004;48.206;16.402;2022-07-25T04:44:22;99781.03;;;19.94;74.06
13869;BME280;7004;48.206;16.402;2022-07-25T04:46:48;99778.72;;;19.99;73.88
13869;BME280;7004;48.206;16.402;2022-07-25T04:49:14;99787.78;;;19.98;72.19
13869;BME280;7004;48.206;16.402;2022-07-25T04:51:41;99786.38;;;20.72;68.80
13869;BME280;7004;48.206;16.402;2022-07-25T04:54:07;99790.59;;;20.49;69.57
13869;BME280;7004;48.206;16.402;2022-07-25T04:56:35;99786.31;;;20.30;70.89
13869;BME280;7004;48.206;16.402;2022-07-25T04:59:01;99783.72;;;20.20;71.74
13869;BME280;7004;48.206;16.402;2022-07-25T05:01:27;99784.13;;;20.34;71.06
13869;BME280;7004;48.206;16.402;2022-07-25T05:03:53;99780.47;;;20.61;70.51
13869;BME280;7004;48.206;16.402;2022-07-25T05:06:19;99784.72;;;20.45;70.62
13869;BME280;7004;48.206;16.402;2022-07-25T05:08:45;99779.63;;;20.60;70.36
13869;BME280;7004;48.206;16.402;2022-07-25T05:11:12;99781.78;;;20.91;68.99
13869;BME280;7004;48.206;16.402;2022-07-25T05:13:38;99772.78;;;20.66;70.28
13869;BME280;7004;48.206;16.402;2022-07-25T05:16:04;99772.00;;;20.82;70.14
13869;BME280;7004;48.206;16.402;2022-07-25T05:18:33;99772.56;;;20.93;68.55
13869;BME280;7004;48.206;16.402;2022-07-25T05:20:59;99772.25;;;21.05;68.68
13869;BME280;7004;48.206;16.402;2022-07-25T05:23:26;99756.22;;;21.78;64.70
13869;BME280;7004;48.206;16.402;2022-07-25T05:25:52;99769.50;;;21.47;65.50
13869;BME280;7004;48.206;16.402;2022-07-25T05:28:19;99766.81;;;21.55;65.61
13869;BME280;7004;48.206;16.402;2022-07-25T05:30:45;99770.06;;;21.16;66.46
13869;BME280;7004;48.206;16.402;2022-07-25T05:33:11;99763.97;;;21.98;64.40
13869;BME280;7004;48.206;16.402;2022-07-25T05:35:37;99766.25;;;21.27;64.70
13869;BME280;7004;48.206;16.402;2022-07-25T05:38:04;99765.78;;;21.40;65.22
13869;BME280;7004;48.206;16.402;2022-07-25T05:40:31;99758.59;;;21.57;65.12
13869;BME280;7004;48.206;16.402;2022-07-25T05:42:57;99757.06;;;21.38;65.35
13869;BME280;7004;48.206;16.402;2022-07-25T05:45:24;99753.53;;;21.78;64.21
13869;BME280;7004;48.206;16.402;2022-07-25T05:47:50;99753.03;;;21.67;62.19
13869;BME280;7004;48.206;16.402;2022-07-25T05:50:17;99749.97;;;21.94;60.68
13869;BME280;7004;48.206;16.402;2022-07-25T05:52:43;99740.22;;;22.01;60.64
13869;BME280;7004;48.206;16.402;2022-07-25T05:55:09;99742.44;;;22.62;60.22
13869;BME280;7004;48.206;16.402;2022-07-25T05:57:35;99737.63;;;22.41;58.95
13869;BME280;7004;48.206;16.402;2022-07-25T06:00:04;99748.44;;;22.16;60.06
13869;BME280;7004;48.206;16.402;2022-07-25T06:02:30;99743.56;;;22.12;59.70
13869;BME280;7004;48.206;16.402;2022-07-25T06:04:58;99750.22;;;22.49;57.99
13869;BME280;7004;48.206;16.402;2022-07-25T06:07:24;99744.41;;;22.37;57.62
13869;BME280;7004;48.206;16.402;2022-07-25T06:09:50;99742.03;;;22.42;58.58
13869;BME280;7004;48.206;16.402;2022-07-25T06:12:17;99740.28;;;22.49;55.45
13869;BME280;7004;48.206;16.402;2022-07-25T06:14:43;99736.72;;;22.65;54.75
13869;BME280;7004;48.206;16.402;2022-07-25T06:17:09;99734.25;;;22.47;54.19
13869;BME280;7004;48.206;16.402;2022-07-25T06:19:36;99737.47;;;22.42;54.67
13869;BME280;7004;48.206;16.402;2022-07-25T06:22:02;99743.34;;;22.85;53.20
13869;BME280;7004;48.206;16.402;2022-07-25T06:24:28;99739.94;;;22.92;51.38
13869;BME280;7004;48.206;16.402;2022-07-25T06:26:54;99737.72;;;23.03;51.43
13869;BME280;7004;48.206;16.402;2022-07-25T06:29:21;99730.38;;;23.20;49.76
13869;BME280;7004;48.206;16.402;2022-07-25T06:31:47;99734.22;;;23.26;50.16
13869;BME280;7004;48.206;16.402;2022-07-25T06:34:15;99728.09;;;23.55;49.85
13869;BME280;7004;48.206;16.402;2022-07-25T06:36:43;99720.00;;;23.78;50.26
13869;BME280;7004;48.206;16.402;2022-07-25T06:39:09;99723.59;;;24.23;48.48
13869;BME280;7004;48.206;16.402;2022-07-25T06:41:35;99717.13;;;23.80;47.17
13869;BME280;7004;48.206;16.402;2022-07-25T06:44:03;99721.00;;;24.59;46.64
13869;BME280;7004;48.206;16.402;2022-07-25T06:46:30;99721.47;;;24.63;45.26
13869;BME280;7004;48.206;16.402;2022-07-25T06:48:58;99715.28;;;25.05;45.58
13869;BME280;7004;48.206;16.402;2022-07-25T06:51:24;99721.56;;;24.55;44.43
13869;BME280;7004;48.206;16.402;2022-07-25T06:53:50;99715.91;;;25.01;43.59
13869;BME280;7004;48.206;16.402;2022-07-25T06:56:17;99707.81;;;24.86;43.39
13869;BME280;7004;48.206;16.402;2022-07-25T06:58:44;99699.41;;;25.60;42.79
13869;BME280;7004;48.206;16.402;2022-07-25T07:01:10;99691.97;;;26.19;41.75
13869;BME280;7004;48.206;16.402;2022-07-25T07:03:36;99694.81;;;25.82;41.34
13869;BME280;7004;48.206;16.402;2022-07-25T07:06:05;99695.13;;;25.44;40.61
13869;BME280;7004;48.206;16.402;2022-07-25T07:08:32;99685.78;;;25.75;41.16
13869;BME280;7004;48.206;16.402;2022-07-25T07:10:59;99687.16;;;26.55;39.98
13869;BME280;7004;48.206;16.402;2022-07-25T07:13:25;99676.38;;;26.27;38.90
13869;BME280;7004;48.206;16.402;2022-07-25T07:15:52;99683.25;;;26.30;38.41
13869;BME280;7004;48.206;16.402;2022-07-25T07:18:19;99676.28;;;26.49;38.24
13869;BME280;7004;48.206;16.402;2022-07-25T07:20:46;99675.81;;;26.87;37.84
13869;BME280;7004;48.206;16.402;2022-07-25T07:23:13;99678.84;;;26.57;37.53
13869;BME280;7004;48.206;16.402;2022-07-25T07:25:40;99673.09;;;26.87;38.49
13869;BME280;7004;48.206;16.402;2022-07-25T07:28:06;99673.00;;;27.75;36.93
13869;BME280;7004;48.206;16.402;2022-07-25T07:30:33;99678.53;;;28.46;35.90
13869;BME280;7004;48.206;16.402;2022-07-25T07:33:00;99676.31;;;28.03;35.66
13869;BME280;7004;48.206;16.402;2022-07-25T07:35:27;99677.59;;;27.41;36.96
13869;BME280;7004;48.206;16.402;2022-07-25T07:37:54;99662.09;;;28.01;34.88
13869;BME280;7004;48.206;16.402;2022-07-25T07:40:20;99667.66;;;28.46;34.36
13869;BME280;7004;48.206;16.402;2022-07-25T07:42:49;99664.94;;;28.46;34.75
13869;BME280;7004;48.206;16.402;2022-07-25T07:45:23;99663.91;;;28.41;35.28
13869;BME280;7004;48.206;16.402;2022-07-25T07:47:52;99664.44;;;28.63;33.96
13869;BME280;7004;48.206;16.402;2022-07-25T07:50:22;99662.47;;;28.83;33.12
13869;BME280;7004;48.206;16.402;2022-07-25T07:52:51;99663.75;;;28.09;32.19
13869;BME280;7004;48.206;16.402;2022-07-25T07:55:17;99654.47;;;28.50;32.81
13869;BME280;7004;48.206;16.402;2022-07-25T07:58:03;99654.03;;;29.55;31.77
13869;BME280;7004;48.206;16.402;2022-07-25T08:00:30;99644.50;;;29.71;32.02
13869;BME280;7004;48.206;16.402;2022-07-25T08:02:58;99649.41;;;28.60;31.67
13869;BME280;7004;48.206;16.402;2022-07-25T08:05:28;99632.66;;;30.39;30.84
13869;BME280;7004;48.206;16.402;2022-07-25T08:07:56;99634.25;;;30.46;30.39
13869;BME280;7004;48.206;16.402;2022-07-25T08:10:26;99637.66;;;30.23;30.07
13869;BME280;7004;48.206;16.402;2022-07-25T08:12:54;99633.75;;;29.76;30.64
13869;BME280;7004;48.206;16.402;2022-07-25T08:15:21;99633.53;;;29.77;30.27
13869;BME280;7004;48.206;16.402;2022-07-25T08:17:49;99620.47;;;30.04;29.90
13869;BME280;7004;48.206;16.402;2022-07-25T08:20:17;99624.22;;;29.85;29.97
13869;BME280;7004;48.206;16.402;2022-07-25T08:22:47;99616.19;;;29.72;30.02
13869;BME280;7004;48.206;16.402;2022-07-25T08:25:18;99601.66;;;29.96;30.56
13869;BME280;7004;48.206;16.402;2022-07-25T08:27:44;99609.88;;;30.63;29.37
13869;BME280;7004;48.206;16.402;2022-07-25T08:30:12;99613.19;;;29.98;29.03
13869;BME280;7004;48.206;16.402;2022-07-25T08:32:51;99602.53;;;30.64;28.40
13869;BME280;7004;48.206;16.402;2022-07-25T08:35:20;99604.41;;;30.63;28.79
13869;BME280;7004;48.206;16.402;2022-07-25T08:37:47;99599.78;;;29.28;30.35
13869;BME280;7004;48.206;16.402;2022-07-25T08:40:16;99583.75;;;30.56;28.57
13869;BME280;7004;48.206;16.402;2022-07-25T08:42:44;99592.06;;;30.12;29.13
13869;BME280;7004;48.206;16.402;2022-07-25T08:45:13;99596.28;;;30.45;28.77
13869;BME280;7004;48.206;16.402;2022-07-25T08:47:42;99593.25;;;31.37;28.08
13869;BME280;7004;48.206;16.402;2022-07-25T08:50:13;99586.25;;;31.65;27.18
13869;BME280;7004;48.206;16.402;2022-07-25T08:52:42;99581.56;;;31.18;26.72
13869;BME280;7004;48.206;16.402;2022-07-25T08:55:14;99572.63;;;30.87;27.74
13869;BME280;7004;48.206;16.402;2022-07-25T08:57:42;99566.16;;;31.94;26.87
13869;BME280;7004;48.206;16.402;2022-07-25T09:00:12;99564.84;;;31.85;26.83
13869;BME280;7004;48.206;16.402;2022-07-25T09:02:38;99563.94;;;31.56;26.41
13869;BME280;7004;48.206;16.402;2022-07-25T09:05:05;99560.38;;;31.55;27.28
13869;BME280;7004;48.206;16.402;2022-07-25T09:07:40;99552.63;;;31.05;27.12
13869;BME280;7004;48.206;16.402;2022-07-25T09:10:27;99547.41;;;30.74;26.61
13869;BME280;7004;48.206;16.402;2022-07-25T09:13:02;99549.16;;;31.10;26.54
13869;BME280;7004;48.206;16.402;2022-07-25T09:15:41;99549.41;;;31.67;26.26
13869;BME280;7004;48.206;16.402;2022-07-25T09:18:10;99546.78;;;32.65;25.73
13869;BME280;7004;48.206;16.402;2022-07-25T09:20:50;99551.06;;;31.33;26.71
13869;BME280;7004;48.206;16.402;2022-07-25T09:28:40;99538.25;;;31.57;26.67
13869;BME280;7004;48.206;16.402;2022-07-25T09:31:08;99538.63;;;31.49;26.05
13869;BME280;7004;48.206;16.402;2022-07-25T09:33:44;99537.06;;;31.29;27.07
13869;BME280;7004;48.206;16.402;2022-07-25T09:36:11;99529.00;;;31.46;27.19
13869;BME280;7004;48.206;16.402;2022-07-25T09:38:37;99527.09;;;31.59;27.04
13869;BME280;7004;48.206;16.402;2022-07-25T09:41:03;99530.66;;;31.59;26.72
13869;BME280;7004;48.206;16.402;2022-07-25T09:43:40;99531.84;;;31.04;27.77
13869;BME280;7004;48.206;16.402;2022-07-25T09:46:09;99517.53;;;30.79;27.92
13869;BME280;7004;48.206;16.402;2022-07-25T09:48:37;99524.53;;;31.92;27.12
13869;BME280;7004;48.206;16.402;2022-07-25T09:51:05;99519.50;;;30.60;28.65
13869;BME280;7004;48.206;16.402;2022-07-25T09:53:32;99510.28;;;32.59;26.93
13869;BME280;7004;48.206;16.402;2022-07-25T09:55:59;99510.22;;;32.71;26.75
13869;BME280;7004;48.206;16.402;2022-07-25T09:58:28;99505.75;;;31.55;27.74
13869;BME280;7004;48.206;16.402;2022-07-25T10:01:05;99506.47;;;31.51;27.60
13869;BME280;7004;48.206;16.402;2022-07-25T10:07:08;99497.56;;;31.44;28.09
13869;BME280;7004;48.206;16.402;2022-07-25T10:09:32;99505.31;;;32.73;27.27
13869;BME280;7004;48.206;16.402;2022-07-25T10:12:10;99502.00;;;32.26;27.38
13869;BME280;7004;48.206;16.402;2022-07-25T10:14:38;99478.22;;;32.89;26.87
13869;BME280;7004;48.206;16.402;2022-07-25T10:17:05;99490.47;;;32.52;27.58
13869;BME280;7004;48.206;16.402;2022-07-25T10:19:47;99490.69;;;31.93;28.59
13869;BME280;7004;48.206;16.402;2022-07-25T10:22:13;99487.31;;;32.15;28.69
13869;BME280;7004;48.206;16.402;2022-07-25T10:24:45;99486.00;;;32.34;28.54
13869;BME280;7004;48.206;16.402;2022-07-25T10:27:23;99490.13;;;32.20;29.09
13869;BME280;7004;48.206;16.402;2022-07-25T10:29:53;99484.25;;;31.24;30.01
13869;BME280;7004;48.206;16.402;2022-07-25T10:32:25;99483.19;;;31.60;29.64
13869;BME280;7004;48.206;16.402;2022-07-25T10:34:57;99483.28;;;31.65;30.70
13869;BME280;7004;48.206;16.402;2022-07-25T10:37:27;99464.03;;;32.58;29.53
13869;BME280;7004;48.206;16.402;2022-07-25T10:39:54;99460.22;;;32.76;29.01
13869;BME280;7004;48.206;16.402;2022-07-25T10:42:22;99468.34;;;32.54;29.18
13869;BME280;7004;48.206;16.402;2022-07-25T10:44:54;99457.81;;;31.76;30.48
13869;BME280;7004;48.206;16.402;2022-07-25T10:47:25;99455.72;;;33.20;28.54
13869;BME280;7004;48.206;16.402;2022-07-25T10:50:00;99448.59;;;32.52;29.38
13869;BME280;7004;48.206;16.402;2022-07-25T10:52:29;99456.22;;;31.92;29.93
13869;BME280;7004;48.206;16.402;2022-07-25T10:55:00;99443.84;;;32.30;28.98
13869;BME280;7004;48.206;16.402;2022-07-25T10:57:27;99442.19;;;32.01;29.74
13869;BME280;7004;48.206;16.402;2022-07-25T11:00:04;99446.19;;;31.69;29.94
13869;BME280;7004;48.206;16.402;2022-07-25T11:02:32;99443.22;;;32.74;29.23
13869;BME280;7004;48.206;16.402;2022-07-25T11:05:01;99440.38;;;32.69;28.99
13869;BME280;7004;48.206;16.402;2022-07-25T11:07:29;99435.06;;;33.13;28.13
13869;BME280;7004;48.206;16.402;2022-07-25T11:10:04;99416.78;;;32.79;28.80
13869;BME280;7004;48.206;16.402;2022-07-25T11:12:31;99426.00;;;32.56;28.71
13869;BME280;7004;48.206;16.402;2022-07-25T11:15:06;99420.06;;;32.81;28.31
13869;BME280;7004;48.206;16.402;2022-07-25T11:17:33;99407.09;;;32.72;28.65
13869;BME280;7004;48.206;16.402;2022-07-25T11:20:07;99408.63;;;31.76;29.86
13869;BME280;7004;48.206;16.402;2022-07-25T11:22:33;99395.06;;;32.95;28.52
13869;BME280;7004;48.206;16.402;2022-07-25T11:25:08;99397.81;;;33.78;27.23
13869;BME280;7004;48.206;16.402;2022-07-25T11:27:35;99401.25;;;32.85;27.87
13869;BME280;7004;48.206;16.402;2022-07-25T11:30:20;99381.91;;;32.92;28.00
13869;BME280;7004;48.206;16.402;2022-07-25T11:32:53;99387.31;;;33.69;27.55
13869;BME280;7004;48.206;16.402;2022-07-25T11:35:30;99383.25;;;33.72;27.36
13869;BME280;7004;48.206;16.402;2022-07-25T11:37:59;99385.59;;;34.12;26.99
13869;BME280;7004;48.206;16.402;2022-07-25T11:40:27;99380.63;;;33.16;27.88
13869;BME280;7004;48.206;16.402;2022-07-25T11:42:55;99369.03;;;33.09;27.46
13869;BME280;7004;48.206;16.402;2022-07-25T11:45:32;99352.63;;;33.31;27.23
13869;BME280;7004;48.206;16.402;2022-07-25T11:48:11;99366.97;;;33.87;26.59
13869;BME280;7004;48.206;16.402;2022-07-25T11:50:40;99363.13;;;33.39;27.55
13869;BME280;7004;48.206;16.402;2022-07-25T11:53:11;99362.44;;;33.27;27.43
13869;BME280;7004;48.206;16.402;2022-07-25T11:55:40;99349.97;;;34.50;26.19
13869;BME280;7004;48.206;16.402;2022-07-25T11:58:12;99347.22;;;34.12;26.61
13869;BME280;7004;48.206;16.402;2022-07-25T12:00:45;99349.38;;;33.56;27.30
13869;BME280;7004;48.206;16.402;2022-07-25T12:03:17;99346.06;;;34.78;26.05
13869;BME280;7004;48.206;16.402;2022-07-25T12:05:46;99346.78;;;34.26;26.03
13869;BME280;7004;48.206;16.402;2022-07-25T12:08:19;99327.31;;;34.00;26.85
13869;BME280;7004;48.206;16.402;2022-07-25T12:10:47;99334.13;;;33.65;27.10
13869;BME280;7004;48.206;16.402;2022-07-25T12:13:28;99330.34;;;35.11;25.77
13869;BME280;7004;48.206;16.402;2022-07-25T12:15:58;99316.31;;;33.95;26.79
13869;BME280;7004;48.206;16.402;2022-07-25T12:18:27;99310.28;;;34.63;26.00
13869;BME280;7004;48.206;16.402;2022-07-25T12:20:55;99309.72;;;34.23;26.35
13869;BME280;7004;48.206;16.402;2022-07-25T12:23:23;99310.63;;;33.75;27.28
13869;BME280;7004;48.206;16.402;2022-07-25T12:25:51;99291.50;;;34.07;26.78
13869;BME280;7004;48.206;16.402;2022-07-25T12:28:17;99288.72;;;34.39;26.60
13869;BME280;7004;48.206;16.402;2022-07-25T12:30:46;99293.38;;;34.39;26.94
13869;BME280;7004;48.206;16.402;2022-07-25T12:33:13;99293.44;;;34.49;26.31
13869;BME280;7004;48.206;16.402;2022-07-25T12:35:41;99282.31;;;35.18;25.62
13869;BME280;7004;48.206;16.402;2022-07-25T12:38:07;99283.84;;;34.99;26.12
13869;BME280;7004;48.206;16.402;2022-07-25T12:40:35;99278.41;;;34.56;26.43
13869;BME280;7004;48.206;16.402;2022-07-25T12:43:03;99276.00;;;33.96;27.04
13869;BME280;7004;48.206;16.402;2022-07-25T12:45:29;99270.97;;;34.09;27.08
13869;BME280;7004;48.206;16.402;2022-07-25T12:47:55;99278.09;;;34.53;26.40
13869;BME280;7004;48.206;16.402;2022-07-25T12:50:22;99279.84;;;33.94;26.52
13869;BME280;7004;48.206;16.402;2022-07-25T12:52:50;99271.13;;;34.03;26.48
13869;BME280;7004;48.206;16.402;2022-07-25T12:55:22;99269.53;;;34.44;26.44
13869;BME280;7004;48.206;16.402;2022-07-25T12:57:48;99268.59;;;34.23;26.83
13869;BME280;7004;48.206;16.402;2022-07-25T13:00:18;99263.50;;;34.47;26.46
13869;BME280;7004;48.206;16.402;2022-07-25T13:02:45;99250.72;;;34.58;26.57
13869;BME280;7004;48.206;16.402;2022-07-25T13:05:14;99246.50;;;34.45;26.85
13869;BME280;7004;48.206;16.402;2022-07-25T13:07:42;99254.94;;;33.96;27.56
13869;BME280;7004;48.206;16.402;2022-07-25T13:10:09;99246.22;;;34.42;27.11
13869;BME280;7004;48.206;16.402;2022-07-25T13:12:36;99229.09;;;34.24;26.92
13869;BME280;7004;48.206;16.402;2022-07-25T13:15:03;99232.19;;;34.33;26.69